Time;durP1;ratioP1;P1;durP2;ratioP2;P2;SDS_P1;SDS_P2;PMS_P1;PMS_P2;Temp;Humidity;BMP_temperature;BMP_pressure;BME280_temperature;BME280_humidity;BME280_pressure;Samples;Min_cycle;Max_cycle;Signal;HPM_P1;HPM_P2
2022/06/08 10:32:16;;;;;;;17.95;9.80;;;19.60;99.90;;;;;;5089343;27;20769;-69
2022/06/08 10:34:42;;;;;;;12.18;6.43;;;18.50;99.90;;;;;;5084879;28;20505;-67
2022/06/08 10:37:18;;;;;;;16.90;9.13;;;18.20;99.90;;;;;;5088988;28;20197;-67
2022/06/08 10:39:46;;;;;;;10.77;4.97;;;18.10;99.90;;;;;;5102000;28;20029;-67
2022/06/08 10:44:59;;;;;;;12.30;4.35;;;17.80;99.90;;;;;;5065221;28;20040;-71
2022/06/08 10:47:28;;;;;;;9.82;4.80;;;17.70;99.90;;;;;;5072615;28;20024;-69
2022/06/08 10:50:03;;;;;;;12.13;5.38;;;17.60;99.90;;;;;;5086667;28;20043;-70
2022/06/08 10:52:47;;;;;;;11.68;5.18;;;17.50;99.90;;;;;;5085700;28;20116;-71
2022/06/08 10:55:16;;;;;;;10.48;5.13;;;17.50;99.90;;;;;;5084536;28;20735;-67
2022/06/08 10:57:51;;;;;;;12.88;6.38;;;17.40;99.90;;;;;;5088328;28;20027;-72
2022/06/08 11:00:20;;;;;;;10.50;4.90;;;17.40;99.90;;;;;;5083369;28;20135;-67
2022/06/08 11:02:54;;;;;;;15.60;5.97;;;17.40;99.90;;;;;;5080379;28;20504;-66
2022/06/08 11:05:40;;;;;;;8.85;4.30;;;17.30;99.90;;;;;;5087778;28;20042;-67
2022/06/08 11:08:18;;;;;;;6.82;3.67;;;17.40;99.90;;;;;;5088653;28;20059;-67
2022/06/08 11:10:48;;;;;;;5.07;2.83;;;17.30;99.90;;;;;;5088107;28;20107;-67
2022/06/08 11:13:23;;;;;;;6.57;3.08;;;17.30;99.90;;;;;;5089169;28;20039;-68
2022/06/08 11:15:53;;;;;;;6.78;3.08;;;17.20;99.90;;;;;;5074928;28;20028;-67
2022/06/08 11:18:47;;;;;;;9.18;3.75;;;17.10;99.90;;;;;;5085029;28;20031;-67
2022/06/08 11:21:13;;;;;;;4.75;3.15;;;17.00;99.90;;;;;;5076234;28;20028;-70
2022/06/08 11:23:44;;;;;;;12.23;4.88;;;17.00;99.90;;;;;;5088134;28;20446;-67
2022/06/08 11:26:28;;;;;;;7.75;2.67;;;16.90;99.90;;;;;;5088604;28;20024;-68
2022/06/08 11:29:22;;;;;;;14.57;5.40;;;16.90;99.90;;;;;;5084210;28;20430;-70
2022/06/08 11:31:54;;;;;;;11.07;3.45;;;16.70;99.90;;;;;;5079804;28;20040;-66
2022/06/08 11:34:20;;;;;;;9.00;3.20;;;16.70;99.90;;;;;;5075383;28;20044;-69
2022/06/08 11:37:23;;;;;;;11.07;3.53;;;16.70;99.90;;;;;;5074743;28;20055;-67
2022/06/08 11:40:12;;;;;;;8.63;2.95;;;16.60;99.90;;;;;;5058281;28;20473;-67
2022/06/08 11:42:51;;;;;;;30.23;19.42;;;16.60;99.90;;;;;;5091346;28;20043;-70
2022/06/08 11:45:27;;;;;;;7.70;3.35;;;16.70;99.90;;;;;;5087306;28;20024;-68
2022/06/08 11:48:01;;;;;;;5.78;2.20;;;16.60;99.90;;;;;;5070449;28;20028;-68
2022/06/08 11:50:31;;;;;;;8.52;2.45;;;16.50;99.90;;;;;;5080013;28;20066;-67
2022/06/08 11:53:01;;;;;;;6.82;2.30;;;16.50;99.90;;;;;;5092707;28;20484;-66
2022/06/08 11:55:28;;;;;;;7.38;3.38;;;16.40;99.90;;;;;;5090578;28;20020;-67
2022/06/08 11:58:09;;;;;;;8.20;3.00;;;16.40;99.90;;;;;;5072130;28;20028;-66
2022/06/08 12:00:51;;;;;;;11.40;4.10;;;16.40;99.90;;;;;;5074336;28;20103;-66
2022/06/08 12:03:16;;;;;;;5.30;2.60;;;16.50;99.90;;;;;;5074652;28;20036;-66
2022/06/08 12:05:47;;;;;;;7.00;2.97;;;16.60;99.90;;;;;;5090648;28;20163;-67
2022/06/08 12:08:18;;;;;;;6.07;2.92;;;16.70;99.90;;;;;;5083632;28;20438;-69
2022/06/08 12:10:44;;;;;;;5.30;2.45;;;16.60;99.90;;;;;;5063518;28;20021;-71
2022/06/08 12:13:21;;;;;;;4.95;2.03;;;16.60;99.90;;;;;;5072045;28;20028;-66
2022/06/08 12:15:48;;;;;;;6.78;3.03;;;16.60;99.90;;;;;;5082953;28;20016;-68
2022/06/08 12:18:23;;;;;;;7.55;2.60;;;16.60;99.90;;;;;;5094219;28;20031;-67
2022/06/08 12:21:00;;;;;;;4.90;2.30;;;16.50;99.90;;;;;;5093121;28;20036;-66
2022/06/08 12:23:43;;;;;;;6.80;3.08;;;16.60;99.90;;;;;;5074087;28;20047;-67
2022/06/08 12:26:22;;;;;;;8.68;3.03;;;16.60;99.90;;;;;;5074210;28;20029;-67
2022/06/08 12:29:01;;;;;;;8.13;3.45;;;16.70;99.90;;;;;;5073455;28;20032;-68
2022/06/08 12:31:31;;;;;;;11.07;3.60;;;16.70;99.90;;;;;;5073749;28;20462;-69
2022/06/08 12:34:16;;;;;;;8.00;2.63;;;16.70;99.90;;;;;;5073181;28;20021;-67
2022/06/08 12:36:43;;;;;;;2.47;1.40;;;16.70;99.90;;;;;;5073949;28;20028;-68
2022/06/08 12:39:15;;;;;;;4.72;1.67;;;16.60;99.90;;;;;;5072348;28;20020;-69
2022/06/08 12:41:46;;;;;;;4.47;2.22;;;16.40;99.90;;;;;;5059664;28;20040;-68
2022/06/08 12:44:32;;;;;;;6.32;1.73;;;16.30;99.90;;;;;;5071309;28;20109;-70
2022/06/08 12:47:16;;;;;;;5.70;2.22;;;16.30;99.90;;;;;;5071049;28;20017;-69
2022/06/08 12:50:04;;;;;;;6.80;3.00;;;16.30;99.90;;;;;;5072397;28;20024;-69
2022/06/08 12:52:36;;;;;;;8.27;3.67;;;16.30;99.90;;;;;;5046434;28;20067;-67
2022/06/08 12:55:10;;;;;;;8.27;2.88;;;16.40;99.90;;;;;;5057318;28;20009;-67
2022/06/08 12:57:35;;;;;;;7.22;3.55;;;16.30;99.90;;;;;;5059791;28;20199;-68
2022/06/08 13:00:07;;;;;;;6.82;3.00;;;16.20;99.90;;;;;;5053290;28;20024;-67
2022/06/08 13:02:37;;;;;;;5.03;2.80;;;16.30;99.90;;;;;;5070108;28;20051;-67
2022/06/08 13:05:17;;;;;;;8.57;3.80;;;16.30;99.90;;;;;;5072560;28;20424;-69
2022/06/08 13:07:43;;;;;;;6.97;3.33;;;16.30;99.90;;;;;;5053957;28;20494;-68
2022/06/08 13:10:09;;;;;;;7.50;2.97;;;16.40;99.90;;;;;;5053103;28;20082;-67
2022/06/08 13:12:42;;;;;;;6.28;3.42;;;16.50;99.90;;;;;;5066639;28;20031;-68
2022/06/08 13:15:20;;;;;;;5.88;3.00;;;16.60;99.90;;;;;;5073104;28;20035;-66
2022/06/08 13:17:46;;;;;;;6.75;3.17;;;16.50;99.90;;;;;;5057290;28;20067;-67
2022/06/08 13:20:19;;;;;;;8.65;3.63;;;16.40;99.90;;;;;;5058567;28;20438;-69
2022/06/08 13:22:45;;;;;;;5.22;3.42;;;16.40;99.90;;;;;;5068636;28;20075;-70
2022/06/08 13:25:17;;;;;;;9.25;3.20;;;16.50;99.90;;;;;;5064760;28;20520;-70
2022/06/08 13:27:43;;;;;;;5.47;3.22;;;16.40;99.90;;;;;;5056532;28;20082;-71
2022/06/08 13:30:18;;;;;;;8.18;2.70;;;16.40;99.90;;;;;;5055280;28;20501;-68
2022/06/08 13:32:44;;;;;;;6.90;3.80;;;16.40;99.90;;;;;;5061483;28;20024;-66
2022/06/08 13:35:11;;;;;;;5.55;3.17;;;16.30;99.90;;;;;;5071278;28;20024;-71
2022/06/08 13:37:41;;;;;;;5.45;3.22;;;16.30;99.90;;;;;;5084276;28;20058;-70
2022/06/08 13:40:17;;;;;;;4.60;3.20;;;16.30;99.90;;;;;;5058812;28;20090;-67
2022/06/08 13:42:44;;;;;;;5.03;3.65;;;16.40;99.90;;;;;;5052673;28;20022;-66
2022/06/08 13:45:17;;;;;;;8.18;4.72;;;16.40;99.90;;;;;;5052697;28;20025;-67
2022/06/08 13:47:45;;;;;;;7.55;4.10;;;16.50;99.90;;;;;;5052432;28;20029;-67
2022/06/08 13:50:23;;;;;;;7.25;3.97;;;16.50;99.90;;;;;;5055180;28;20474;-66
2022/06/08 13:52:50;;;;;;;8.25;3.60;;;16.50;99.90;;;;;;5070328;28;20025;-68
2022/06/08 13:55:31;;;;;;;6.35;4.22;;;16.50;99.90;;;;;;5068241;28;20453;-68
2022/06/08 13:58:00;;;;;;;7.07;3.40;;;16.50;99.90;;;;;;5066308;28;20450;-69
2022/06/08 14:00:27;;;;;;;7.95;4.05;;;16.50;99.90;;;;;;5071925;28;20382;-67
2022/06/08 14:02:55;;;;;;;6.88;3.92;;;16.50;99.90;;;;;;5072317;28;20016;-68
2022/06/08 14:12:59;;;;;;;6.88;3.88;;;16.50;99.90;;;;;;5072106;28;20052;-67
2022/06/08 14:13:48;;;;;;;6.38;3.83;;;16.60;99.90;;;;;;5071319;28;20035;-72
2022/06/08 14:16:15;;;;;;;10.63;4.38;;;16.70;99.90;;;;;;5057758;28;20021;-68
2022/06/08 14:18:48;;;;;;;12.65;3.88;;;16.70;99.90;;;;;;5052267;28;20119;-70
2022/06/08 14:21:15;;;;;;;7.55;4.00;;;16.70;99.90;;;;;;5067882;28;20040;-71
2022/06/08 14:23:43;;;;;;;8.40;4.28;;;16.60;99.90;;;;;;5068422;28;20111;-68
2022/06/08 14:26:13;;;;;;;11.02;4.95;;;16.70;99.90;;;;;;5069433;28;20013;-69
2022/06/08 14:28:39;;;;;;;8.77;4.28;;;16.70;99.90;;;;;;5081597;28;20046;-70
2022/06/08 14:31:10;;;;;;;11.60;4.55;;;16.70;99.90;;;;;;5072322;28;20058;-68
2022/06/08 14:33:36;;;;;;;11.70;4.68;;;16.60;99.90;;;;;;5075222;28;20534;-70
2022/06/08 14:36:03;;;;;;;9.60;4.97;;;16.60;99.90;;;;;;5074480;28;20029;-69
2022/06/08 14:38:33;;;;;;;10.10;4.35;;;16.60;99.90;;;;;;5086478;28;20039;-68
2022/06/08 14:40:59;;;;;;;13.80;4.72;;;16.60;99.90;;;;;;5085697;28;20119;-67
2022/06/08 14:43:26;;;;;;;10.43;4.40;;;16.70;99.90;;;;;;5085697;28;20019;-68
2022/06/08 14:45:52;;;;;;;11.75;4.60;;;16.80;99.90;;;;;;5081481;28;20028;-67
2022/06/08 14:48:25;;;;;;;13.20;4.07;;;16.80;99.90;;;;;;5083638;28;20360;-69
2022/06/08 14:50:53;;;;;;;12.48;5.38;;;16.90;99.90;;;;;;5082785;28;20053;-69
2022/06/08 14:53:21;;;;;;;15.35;5.18;;;16.90;99.90;;;;;;5082308;28;20028;-67
2022/06/08 14:58:33;;;;;;;19.80;6.60;;;16.90;99.90;;;;;;5083211;28;20069;-68
2022/06/08 15:00:59;;;;;;;21.48;6.65;;;16.90;99.90;;;;;;5074188;28;20122;-69
2022/06/08 15:03:26;;;;;;;22.83;6.53;;;16.90;99.90;;;;;;5071764;28;20021;-67
2022/06/08 15:05:54;;;;;;;23.15;6.15;;;16.90;99.90;;;;;;5070647;28;20036;-72
2022/06/08 15:08:21;;;;;;;19.63;6.50;;;16.90;99.90;;;;;;5070235;28;20035;-69
2022/06/08 15:13:37;;;;;;;23.60;7.70;;;17.00;99.90;;;;;;5075361;28;20120;-67
2022/06/08 15:16:03;;;;;;;26.05;6.18;;;17.00;99.90;;;;;;5073805;28;20365;-68
2022/06/08 15:18:30;;;;;;;24.20;9.43;;;16.90;99.90;;;;;;5073541;28;20025;-67
2022/06/08 15:20:56;;;;;;;25.80;8.90;;;17.00;99.90;;;;;;5074695;28;20094;-70
2022/06/08 15:23:22;;;;;;;22.88;6.78;;;17.10;99.90;;;;;;5074601;28;20382;-68
2022/06/08 15:25:51;;;;;;;24.40;7.43;;;17.30;99.90;;;;;;5073226;28;20020;-67
2022/06/08 15:28:30;;;;;;;22.90;7.32;;;17.40;99.90;;;;;;5073376;28;20029;-67
2022/06/08 15:30:56;;;;;;;29.65;8.68;;;17.50;99.90;;;;;;5074614;28;20044;-68
2022/06/08 15:33:24;;;;;;;23.15;5.65;;;17.60;99.90;;;;;;5073239;28;20021;-67
2022/06/08 15:36:13;;;;;;;23.08;6.13;;;17.70;99.90;;;;;;5073952;28;20099;-67
2022/06/08 15:38:53;;;;;;;23.42;7.07;;;17.70;99.90;;;;;;5058027;28;20032;-68
2022/06/08 15:41:22;;;;;;;19.70;6.95;;;17.70;99.90;;;;;;5074143;28;20074;-66
2022/06/08 15:43:49;;;;;;;24.20;7.07;;;17.70;99.90;;;;;;5058550;28;20032;-67
2022/06/08 15:46:19;;;;;;;22.67;7.13;;;17.80;99.90;;;;;;5054596;28;20025;-67
2022/06/08 15:48:55;;;;;;;24.23;5.70;;;17.80;99.90;;;;;;5054837;28;20029;-67
2022/06/08 15:51:22;;;;;;;23.63;8.07;;;17.80;99.90;;;;;;5054626;28;20021;-68
2022/06/08 15:53:57;;;;;;;25.38;7.15;;;17.80;99.90;;;;;;5054107;28;20170;-67
2022/06/08 15:56:36;;;;;;;24.67;7.55;;;17.80;99.90;;;;;;5055783;28;20567;-66
2022/06/08 15:59:07;;;;;;;30.23;6.85;;;17.80;99.90;;;;;;5063737;28;20467;-67
2022/06/08 16:01:33;;;;;;;21.98;6.22;;;17.90;99.90;;;;;;5068104;28;20040;-66
2022/06/08 16:04:23;;;;;;;25.08;6.88;;;17.80;99.90;;;;;;5070712;28;20021;-67
2022/06/08 16:06:50;;;;;;;29.38;7.07;;;17.80;99.90;;;;;;5091017;28;20023;-66
2022/06/08 16:09:17;;;;;;;29.35;7.38;;;17.70;99.90;;;;;;5084214;28;20029;-69
2022/06/08 16:11:43;;;;;;;27.55;6.85;;;17.80;99.90;;;;;;5062201;28;20811;-69
2022/06/08 16:14:09;;;;;;;24.65;5.70;;;17.90;99.90;;;;;;5071225;28;20031;-68
2022/06/08 16:16:35;;;;;;;24.05;6.50;;;17.90;99.90;;;;;;5072249;28;20107;-66
2022/06/08 16:19:22;;;;;;;21.33;6.28;;;18.00;99.90;;;;;;5070831;28;20027;-67
2022/06/08 16:21:47;;;;;;;22.15;6.25;;;18.10;99.90;;;;;;5066303;28;20023;-66
2022/06/08 16:24:13;;;;;;;30.52;6.70;;;18.10;99.90;;;;;;5057465;28;20036;-66
2022/06/08 16:26:40;;;;;;;24.80;6.68;;;18.10;99.90;;;;;;5060113;28;20033;-68
2022/06/08 16:29:06;;;;;;;24.35;5.32;;;18.10;99.90;;;;;;5059290;28;20017;-67
2022/06/08 16:31:32;;;;;;;19.05;5.53;;;18.30;99.90;;;;;;5069703;28;20041;-67
2022/06/08 16:33:58;;;;;;;23.08;6.20;;;18.30;99.90;;;;;;5068251;28;20013;-68
2022/06/08 16:36:24;;;;;;;21.77;6.45;;;18.30;99.90;;;;;;5052407;28;20401;-69
2022/06/08 16:38:51;;;;;;;24.80;6.50;;;18.40;99.90;;;;;;5057164;28;20031;-69
2022/06/08 16:41:17;;;;;;;25.33;6.13;;;18.50;99.90;;;;;;5053330;28;20041;-66
2022/06/08 16:43:43;;;;;;;17.70;5.00;;;18.60;99.90;;;;;;5071961;28;20043;-67
2022/06/08 16:46:09;;;;;;;19.15;6.05;;;18.60;99.90;;;;;;5060322;28;20021;-66
2022/06/08 16:48:36;;;;;;;19.25;5.10;;;18.80;99.90;;;;;;5061034;28;20101;-68
2022/06/08 16:51:03;;;;;;;20.63;6.22;;;18.90;99.90;;;;;;5053455;28;20048;-67
2022/06/08 16:53:29;;;;;;;17.00;4.80;;;18.90;99.90;;;;;;5061216;28;20531;-68
2022/06/08 16:55:56;;;;;;;20.85;5.57;;;18.90;99.90;;;;;;5070801;28;20032;-67
2022/06/08 17:01:06;;;;;;;20.50;5.93;;;19.00;99.90;;;;;;5063804;28;20086;-68
2022/06/08 17:03:32;;;;;;;27.02;5.35;;;19.10;99.90;;;;;;5072572;28;20044;-67
2022/06/08 17:06:00;;;;;;;21.08;6.00;;;19.10;99.90;;;;;;5073145;28;20016;-66
2022/06/08 17:08:27;;;;;;;24.33;5.18;;;19.10;99.90;;;;;;5074332;28;20092;-68
2022/06/08 17:13:38;;;;;;;19.83;5.65;;;19.00;99.90;;;;;;5052960;28;20056;-66
2022/06/08 17:16:04;;;;;;;17.08;5.07;;;18.90;99.90;;;;;;5051738;28;20371;-66
2022/06/08 17:18:34;;;;;;;23.70;5.18;;;18.90;99.90;;;;;;5053902;28;20032;-69
2022/06/08 17:21:00;;;;;;;16.98;4.63;;;18.90;99.90;;;;;;5061348;28;20132;-67
2022/06/08 17:23:27;;;;;;;18.88;4.65;;;18.90;99.90;;;;;;5052153;28;20028;-68
2022/06/08 17:25:52;;;;;;;17.98;5.25;;;18.80;99.90;;;;;;5067871;28;20018;-66
2022/06/08 17:28:19;;;;;;;17.58;4.20;;;18.80;99.90;;;;;;5053089;28;20028;-67
2022/06/08 17:30:45;;;;;;;21.77;4.70;;;18.70;99.90;;;;;;5063139;28;20401;-66
2022/06/08 17:33:11;;;;;;;23.73;4.68;;;18.60;99.90;;;;;;5052723;28;20029;-67
2022/06/08 17:35:37;;;;;;;20.75;5.18;;;18.50;99.90;;;;;;5051983;28;20024;-65
2022/06/08 17:38:03;;;;;;;19.80;5.30;;;18.50;99.90;;;;;;5056961;28;20056;-68
2022/06/08 17:40:28;;;;;;;18.20;4.25;;;18.40;99.90;;;;;;5069018;28;20036;-66
2022/06/08 17:42:57;;;;;;;22.40;5.53;;;18.30;99.90;;;;;;5072580;28;20028;-66
2022/06/08 17:45:24;;;;;;;24.00;6.20;;;18.30;99.90;;;;;;5062844;28;20024;-66
2022/06/08 17:47:50;;;;;;;22.95;7.40;;;18.20;99.90;;;;;;5057041;28;20031;-66
2022/06/08 17:50:17;;;;;;;26.10;6.57;;;18.10;99.90;;;;;;5075746;28;20029;-67
2022/06/08 17:52:43;;;;;;;22.73;5.53;;;18.10;99.90;;;;;;5052935;28;20450;-67
2022/06/08 17:55:09;;;;;;;25.50;6.50;;;18.10;99.90;;;;;;5052471;28;20029;-66
2022/06/08 17:57:35;;;;;;;34.75;7.78;;;18.10;99.90;;;;;;5056873;28;20131;-66
2022/06/08 18:00:06;;;;;;;25.85;6.47;;;18.10;99.90;;;;;;5054512;28;20040;-66
2022/06/08 18:02:31;;;;;;;22.48;4.90;;;18.00;99.90;;;;;;5050517;28;20025;-66
2022/06/08 18:04:57;;;;;;;23.52;5.45;;;18.00;99.90;;;;;;5063543;28;20027;-68
2022/06/08 18:07:24;;;;;;;18.10;5.13;;;18.00;99.90;;;;;;5069170;28;20534;-66
2022/06/08 18:09:51;;;;;;;23.17;5.90;;;18.00;99.90;;;;;;5074059;28;20496;-66
2022/06/08 18:12:16;;;;;;;24.15;5.38;;;17.90;99.90;;;;;;5069111;28;20809;-66
2022/06/08 18:14:46;;;;;;;24.85;4.82;;;17.90;99.90;;;;;;5081584;28;20072;-66
2022/06/08 18:17:15;;;;;;;19.00;4.68;;;17.80;99.90;;;;;;5051467;28;20067;-66
2022/06/08 18:19:41;;;;;;;19.63;4.88;;;17.80;99.90;;;;;;5048228;28;20642;-66
2022/06/08 18:22:09;;;;;;;25.50;5.13;;;17.80;99.90;;;;;;5049299;28;20048;-65
2022/06/08 18:24:43;;;;;;;23.73;5.00;;;17.80;99.90;;;;;;5051464;28;20020;-67
2022/06/08 18:27:27;;;;;;;22.25;5.38;;;17.70;99.90;;;;;;5069780;28;20029;-69
2022/06/08 18:29:57;;;;;;;23.10;4.93;;;17.70;99.90;;;;;;5067015;28;20052;-68
2022/06/08 18:32:24;;;;;;;19.58;5.63;;;17.70;99.90;;;;;;5062241;28;20078;-67
2022/06/08 18:34:51;;;;;;;25.63;5.68;;;17.70;99.90;;;;;;5069767;28;20066;-66
2022/06/08 18:37:18;;;;;;;24.33;4.32;;;17.70;99.90;;;;;;5051931;28;20036;-67
2022/06/08 18:39:44;;;;;;;25.17;4.53;;;17.70;99.90;;;;;;5051840;28;20029;-68
2022/06/08 18:42:17;;;;;;;23.58;5.53;;;17.70;99.90;;;;;;5054202;28;20469;-65
2022/06/08 18:44:43;;;;;;;26.98;6.85;;;17.70;99.90;;;;;;5053040;28;20053;-67
2022/06/08 18:47:08;;;;;;;26.40;6.57;;;17.60;99.90;;;;;;5065592;28;20071;-67
2022/06/08 18:49:34;;;;;;;22.02;4.93;;;17.60;99.90;;;;;;5075549;28;20028;-66
2022/06/08 18:52:00;;;;;;;28.75;6.20;;;17.60;99.90;;;;;;5073743;28;20032;-65
2022/06/08 18:54:26;;;;;;;20.38;5.43;;;17.60;99.90;;;;;;5056765;28;20021;-66
2022/06/08 18:56:52;;;;;;;24.13;6.22;;;17.70;99.90;;;;;;5069013;28;20036;-67
2022/06/08 18:59:18;;;;;;;29.15;6.68;;;17.70;99.90;;;;;;5057902;28;20023;-66
2022/06/08 19:01:44;;;;;;;23.60;5.75;;;17.70;99.90;;;;;;5055445;28;20394;-65
2022/06/08 19:04:12;;;;;;;29.05;5.00;;;17.80;99.90;;;;;;5055956;28;20021;-65
2022/06/08 19:06:38;;;;;;;29.83;6.60;;;17.80;99.90;;;;;;5068758;28;20108;-66
2022/06/08 19:09:05;;;;;;;24.63;5.70;;;17.90;99.90;;;;;;5075553;28;20033;-67
2022/06/08 19:11:31;;;;;;;26.33;5.55;;;17.90;99.90;;;;;;5072976;28;20029;-67
2022/06/08 19:13:57;;;;;;;24.70;5.35;;;17.80;99.90;;;;;;5071446;28;20035;-67
2022/06/08 19:16:23;;;;;;;23.73;6.30;;;17.80;99.90;;;;;;5073633;28;20020;-65
2022/06/08 19:21:35;;;;;;;29.85;5.88;;;17.70;99.90;;;;;;5073535;28;20119;-65
2022/06/08 19:24:01;;;;;;;25.25;5.90;;;17.60;99.90;;;;;;5071452;28;20046;-67
2022/06/08 19:26:29;;;;;;;29.40;5.55;;;17.60;99.90;;;;;;5073072;28;20420;-66
2022/06/08 19:28:55;;;;;;;25.73;5.03;;;17.50;99.90;;;;;;5074998;28;20035;-66
2022/06/08 19:31:22;;;;;;;33.20;5.93;;;17.50;99.90;;;;;;5074826;28;20521;-67
2022/06/08 19:33:54;;;;;;;25.52;5.22;;;17.40;99.90;;;;;;5074274;28;20016;-66
2022/06/08 19:36:23;;;;;;;82.25;47.95;;;17.40;99.90;;;;;;5074451;28;20024;-68
2022/06/08 19:38:49;;;;;;;106.18;55.88;;;17.30;99.90;;;;;;5074204;28;20082;-65
2022/06/08 19:41:19;;;;;;;128.45;79.60;;;17.20;99.90;;;;;;5071313;28;20442;-66
2022/06/08 19:43:45;;;;;;;62.70;29.15;;;17.10;99.90;;;;;;5072449;28;20024;-66
2022/06/08 19:46:12;;;;;;;91.00;45.35;;;17.10;99.90;;;;;;5074995;28;20052;-69
2022/06/08 19:48:38;;;;;;;34.75;12.93;;;17.00;99.90;;;;;;5075193;28;20032;-66
2022/06/08 19:51:05;;;;;;;27.08;7.03;;;16.90;99.90;;;;;;5073666;28;20020;-66
2022/06/08 19:53:31;;;;;;;26.55;6.65;;;16.80;99.90;;;;;;5074232;28;20028;-66
2022/06/08 19:55:58;;;;;;;34.28;8.00;;;16.80;99.90;;;;;;5074567;28;20036;-68
2022/06/08 19:58:24;;;;;;;32.45;8.98;;;16.70;99.90;;;;;;5074649;28;20465;-68
2022/06/08 20:00:54;;;;;;;29.52;6.55;;;16.60;99.90;;;;;;5074245;28;20401;-66
2022/06/08 20:03:20;;;;;;;25.15;5.65;;;16.50;99.90;;;;;;5062740;28;20394;-66
2022/06/08 20:05:46;;;;;;;27.40;6.45;;;16.40;99.90;;;;;;5055163;28;20074;-69
2022/06/08 20:08:13;;;;;;;27.95;6.25;;;16.40;99.90;;;;;;5073170;28;20040;-67
2022/06/08 20:10:40;;;;;;;29.85;5.65;;;16.30;99.90;;;;;;5074151;28;20027;-66
2022/06/08 20:13:07;;;;;;;24.05;5.55;;;16.20;99.90;;;;;;5074715;28;20124;-65
2022/06/08 20:15:33;;;;;;;26.35;5.82;;;16.10;99.90;;;;;;5074205;28;20350;-65
2022/06/08 20:17:59;;;;;;;22.85;4.90;;;16.00;99.90;;;;;;5071614;28;20099;-66
2022/06/08 20:20:27;;;;;;;32.05;6.40;;;16.00;99.90;;;;;;5057532;28;20032;-65
2022/06/08 20:22:53;;;;;;;21.88;4.40;;;15.90;99.90;;;;;;5067965;28;20365;-64
2022/06/08 20:25:23;;;;;;;20.45;4.07;;;15.90;99.90;;;;;;5068151;28;20039;-68
2022/06/08 20:27:49;;;;;;;22.17;4.72;;;15.90;99.90;;;;;;5073602;28;20021;-65
2022/06/08 20:30:15;;;;;;;21.10;4.20;;;15.80;99.90;;;;;;5072792;28;20040;-65
2022/06/08 20:32:42;;;;;;;23.85;4.35;;;15.80;99.90;;;;;;5053822;28;20043;-66
2022/06/08 20:35:10;;;;;;;20.48;4.25;;;15.70;99.90;;;;;;5054228;28;20369;-68
2022/06/08 20:37:36;;;;;;;26.98;5.30;;;15.70;99.90;;;;;;5054204;28;20489;-65
2022/06/08 20:40:03;;;;;;;20.77;4.25;;;15.70;99.90;;;;;;5053977;28;20029;-66
2022/06/08 20:42:28;;;;;;;19.75;4.53;;;15.70;99.90;;;;;;5054270;28;20082;-67
2022/06/08 20:44:54;;;;;;;21.17;4.03;;;15.70;99.90;;;;;;5057252;28;20088;-65
2022/06/08 20:47:20;;;;;;;30.17;6.28;;;15.60;99.90;;;;;;5071109;28;20088;-64
2022/06/08 20:49:49;;;;;;;26.83;4.65;;;15.60;99.90;;;;;;5072271;28;20032;-66
2022/06/08 20:52:16;;;;;;;19.70;4.55;;;15.60;99.90;;;;;;5072089;28;20024;-65
2022/06/08 20:54:42;;;;;;;25.67;5.93;;;15.60;99.90;;;;;;5073179;28;20056;-65
2022/06/08 20:57:08;;;;;;;24.25;4.25;;;15.60;99.90;;;;;;5073700;28;20078;-67
2022/06/08 20:59:35;;;;;;;22.83;4.55;;;15.60;99.90;;;;;;5073671;28;20382;-65
2022/06/08 21:02:04;;;;;;;26.40;4.72;;;15.60;99.90;;;;;;5072120;28;20480;-66
2022/06/08 21:04:32;;;;;;;21.25;4.20;;;15.50;99.90;;;;;;5071474;28;20086;-65
2022/06/08 21:07:00;;;;;;;27.73;4.85;;;15.50;99.90;;;;;;5071700;28;20028;-65
2022/06/08 21:09:26;;;;;;;17.75;3.95;;;15.50;99.90;;;;;;5073046;28;20031;-67
2022/06/08 21:11:52;;;;;;;13.10;3.72;;;15.40;99.90;;;;;;5072818;28;20091;-69
2022/06/08 21:14:18;;;;;;;16.35;3.10;;;15.40;99.90;;;;;;5073113;28;20028;-65
2022/06/08 21:16:43;;;;;;;22.17;3.63;;;15.40;99.90;;;;;;5071639;28;20023;-68
2022/06/08 21:19:09;;;;;;;22.92;3.78;;;15.40;99.90;;;;;;5056389;28;20024;-66
2022/06/08 21:21:36;;;;;;;18.25;3.40;;;15.40;99.90;;;;;;5053375;28;20446;-66
2022/06/08 21:24:02;;;;;;;26.05;8.23;;;15.40;99.90;;;;;;5063457;28;20016;-67
2022/06/08 21:26:28;;;;;;;31.20;9.80;;;15.40;99.90;;;;;;5072604;28;20062;-66
2022/06/08 21:28:54;;;;;;;20.55;4.95;;;15.40;99.90;;;;;;5072363;28;20411;-66
2022/06/08 21:31:23;;;;;;;20.88;3.13;;;15.50;99.90;;;;;;5071836;28;20059;-66
2022/06/08 21:33:49;;;;;;;27.67;4.50;;;15.50;99.90;;;;;;5072610;28;20012;-66
2022/06/08 21:36:15;;;;;;;24.98;5.55;;;15.50;99.90;;;;;;5072155;28;20028;-68
2022/06/08 21:38:43;;;;;;;27.42;6.45;;;15.50;99.90;;;;;;5069758;28;20017;-65
2022/06/08 21:41:10;;;;;;;23.98;5.82;;;15.50;99.90;;;;;;5072551;28;20028;-66
2022/06/08 21:43:35;;;;;;;29.00;6.72;;;15.40;99.90;;;;;;5072222;28;20663;-67
2022/06/08 21:46:01;;;;;;;33.88;6.43;;;15.50;99.90;;;;;;5072467;28;20032;-66
2022/06/08 21:48:27;;;;;;;21.23;5.05;;;15.50;99.90;;;;;;5072345;28;20032;-67
2022/06/08 21:50:53;;;;;;;24.38;4.40;;;15.40;99.90;;;;;;5071862;28;20043;-66
2022/06/08 21:53:22;;;;;;;34.83;7.05;;;15.40;99.90;;;;;;5072197;28;20035;-66
2022/06/08 21:55:48;;;;;;;20.38;4.68;;;15.40;99.90;;;;;;5072155;28;20012;-66
2022/06/08 21:58:15;;;;;;;29.98;5.35;;;15.40;99.90;;;;;;5072248;28;20111;-66
2022/06/08 22:00:47;;;;;;;27.45;6.03;;;15.40;99.90;;;;;;5072344;28;20068;-65
2022/06/08 22:03:18;;;;;;;27.85;5.78;;;15.30;99.90;;;;;;5072632;28;20055;-65
2022/06/08 22:05:44;;;;;;;31.65;6.43;;;15.30;99.90;;;;;;5070957;28;20465;-67
2022/06/08 22:08:14;;;;;;;28.30;5.35;;;15.30;99.90;;;;;;5070946;28;20024;-66
2022/06/08 22:10:41;;;;;;;24.42;5.65;;;15.30;99.90;;;;;;5072217;28;20074;-66
2022/06/08 22:13:08;;;;;;;38.03;5.60;;;15.30;99.90;;;;;;5072450;28;20044;-68
2022/06/08 22:15:34;;;;;;;20.10;4.68;;;15.30;99.90;;;;;;5071999;28;20060;-69
2022/06/08 22:17:59;;;;;;;30.00;5.57;;;15.30;99.90;;;;;;5072490;28;20381;-65
2022/06/08 22:20:26;;;;;;;23.95;5.15;;;15.20;99.90;;;;;;5072085;28;20021;-67
2022/06/08 22:22:53;;;;;;;34.08;5.00;;;15.30;99.90;;;;;;5072179;28;20025;-66
2022/06/08 22:25:21;;;;;;;20.27;4.55;;;15.20;99.90;;;;;;5070275;28;20059;-65
2022/06/08 22:27:47;;;;;;;18.58;5.07;;;15.30;99.90;;;;;;5068997;28;20027;-66
2022/06/08 22:30:15;;;;;;;18.90;4.85;;;15.30;99.90;;;;;;5072051;28;20057;-65
2022/06/08 22:32:42;;;;;;;28.52;5.85;;;15.30;99.90;;;;;;5072172;28;20020;-66
2022/06/08 22:35:10;;;;;;;18.45;3.95;;;15.40;99.90;;;;;;5072281;28;20035;-67
2022/06/08 22:37:36;;;;;;;22.23;5.68;;;15.40;99.90;;;;;;5072472;28;20021;-66
2022/06/08 22:40:44;;;;;;;15.45;4.03;;;15.40;99.90;;;;;;5071057;28;20024;-64
2022/06/08 22:43:15;;;;;;;23.20;5.93;;;15.40;99.90;;;;;;5070007;28;20062;-68
2022/06/08 22:45:42;;;;;;;19.88;4.88;;;15.30;99.90;;;;;;5072199;28;20086;-66
2022/06/08 22:48:09;;;;;;;18.13;4.53;;;15.30;99.90;;;;;;5068806;28;20107;-65
2022/06/08 22:50:39;;;;;;;18.50;4.43;;;15.30;99.90;;;;;;5071577;28;20433;-68
2022/06/08 22:53:05;;;;;;;21.73;5.15;;;15.30;99.90;;;;;;5071860;28;20044;-65
2022/06/08 22:55:40;;;;;;;21.42;4.95;;;15.20;99.90;;;;;;5072051;28;20024;-66
2022/06/08 22:58:07;;;;;;;16.20;4.15;;;15.20;99.90;;;;;;5071924;28;20044;-65
2022/06/08 23:00:33;;;;;;;21.33;3.97;;;15.10;99.90;;;;;;5065691;28;20135;-68
2022/06/08 23:03:00;;;;;;;25.73;5.95;;;15.00;99.90;;;;;;5068965;28;20877;-65
2022/06/08 23:05:29;;;;;;;20.48;4.97;;;15.00;99.90;;;;;;5071669;28;20099;-67
2022/06/08 23:07:54;;;;;;;15.35;4.03;;;14.90;99.90;;;;;;5072099;28;20094;-65
2022/06/08 23:10:21;;;;;;;19.80;4.72;;;14.80;99.90;;;;;;5071756;28;20404;-65
2022/06/08 23:12:47;;;;;;;15.10;3.67;;;14.70;99.90;;;;;;5071727;28;20127;-66
2022/06/08 23:15:19;;;;;;;18.55;3.83;;;14.60;99.90;;;;;;5071489;28;20017;-65
2022/06/08 23:20:29;;;;;;;16.45;4.63;;;14.60;99.90;;;;;;5066946;28;20098;-66
2022/06/08 23:22:56;;;;;;;20.50;4.70;;;14.50;99.90;;;;;;5058472;28;20025;-65
2022/06/08 23:25:22;;;;;;;14.05;4.20;;;14.50;99.90;;;;;;5063270;28;20416;-68
2022/06/08 23:27:48;;;;;;;24.02;6.50;;;14.50;99.90;;;;;;5072657;28;20458;-67
2022/06/08 23:30:13;;;;;;;16.83;4.00;;;14.40;99.90;;;;;;5072576;28;20101;-67
2022/06/08 23:32:39;;;;;;;23.80;5.47;;;14.40;99.90;;;;;;5072841;28;20493;-66
2022/06/08 23:35:05;;;;;;;18.98;4.50;;;14.40;99.90;;;;;;5063611;28;20151;-67
2022/06/08 23:37:31;;;;;;;17.15;4.45;;;14.30;99.90;;;;;;5075066;28;20021;-64
2022/06/08 23:39:59;;;;;;;22.35;5.32;;;14.30;99.90;;;;;;5061412;28;20466;-66
2022/06/08 23:42:25;;;;;;;20.38;5.95;;;14.30;99.90;;;;;;5069453;28;20024;-65
2022/06/08 23:44:50;;;;;;;20.17;5.05;;;14.30;99.90;;;;;;5063333;28;20445;-67